Parma, Arkansas
Current Conditions -  °F | °C
As of 2:15 PM on Saturday 20 Dec 2014 (Local Time) from KCCA Reporting Station
Haze Haze  
Wind Chill:   Ceiling: 2100
Heat Index:   Visibility: 5mi
Dew Point:   Wind: 0mph
Humidity: 71%   Direction: NA
Pressure: 30.23"   Gusts: NA
Location:  35.659°N, 92.1866°W
Report Text: KCCA 202015Z AUTO 00000KT 5SM HZ OVC021 08/03 A3023 RMK AO2
Loading
Personal Weather Stations






























Interactive Weather Map New forecast layout! Learn more

10-Day Weather Forecast

Advertisements
Track Severe Weather on mobile